CheckWX is a tool to help pilots better visualize weather data.  It is not intended as a substitute for an official pre-flight weather briefing.

18:20:53 UTC

VTSM METAR
Samui Airport
Na Thon (Ko Samui Island), Thailand
Current

3 hours ago

VTSM 231500Z 15008KT 9999 FEW020 28/24 Q1014 NOSIG
Observed
Jan-23 @ 15:00 UTC
Wind
  • 150° at 8 KTS
Visibility
10,000+ meters
Flight Rules
VFR
Cloud Levels
  • Few at 2,000' AGL
Temperature
28°C / 82°F
Dewpoint
24°C / 75°F
Heat Index
32°C / 89°F
Humidity
79%
Altimeter
29.94" Hg
Pressure
1013.92 hPa
Previous

4 hours ago

VTSM 231430Z 14009KT 9999 FEW020 28/24 Q1014 NOSIG
Observed
Jan-23 @ 14:30 UTC
Wind
  • 140° at 9 KTS
Visibility
10,000+ meters
Flight Rules
VFR
Cloud Levels
  • Few at 2,000' AGL
Temperature
28°C / 82°F
Dewpoint
24°C / 75°F
Heat Index
32°C / 89°F
Humidity
79%
Altimeter
29.94" Hg
Pressure
1013.92 hPa
Previous

4 hours ago

VTSM 231400Z 14007KT 9999 FEW020 28/24 Q1013 NOSIG
Observed
Jan-23 @ 14:00 UTC
Wind
  • 140° at 7 KTS
Visibility
10,000+ meters
Flight Rules
VFR
Cloud Levels
  • Few at 2,000' AGL
Temperature
28°C / 82°F
Dewpoint
24°C / 75°F
Heat Index
32°C / 89°F
Humidity
79%
Altimeter
29.91" Hg
Pressure
1012.92 hPa